Fresno (FAT/KFAT)

Information

Location
Fresno, CA
Local Time
19:29 / 7:29 pm
GMT Time
02:29 / 2:29 am
Gates
Unassigned
No FAA reported delays
METAR KFAT 280153Z 32018G31KT 10SM FEW060 FEW100 SCT180 16/04 A3010 RMK AO2 PK WND 31033/0129 SLP192 MTNS OBSCD DSNT N-NE-SE T01610044
TAF KFAT 272320Z 2800/2824 31018G28KT P6SM SCT050 FM280600 31010KT P6SM SKC FM281200 31005KT P6SM SKC
  • No charts available